RYR674 LOWW-LYNI
Flight info
| Callsign | RYR674 |
|---|---|
| Flight time | 0h 53m |
| Altitude | 33000 |
| Route | ARSIN DCT NALOX DCT NIKAB DCT BABIT DCT NEVAK DCT SOSEK |
| Aircraft | A320/M-SDE3FGHIRWY/LB1 |
Departure
| Time | 2026-04-26 08:16 |
|---|---|
| Airport | Vienna International Airport (LOWW) |
Arrival
| Time | 2026-04-26 09:09 |
|---|---|
| Airport | Niš Constantine the Great Airport (LYNI) |
| Time | Latitude | Longitude | Altitude | Speed | Heading |
|---|---|---|---|---|---|
| 2026-04-26 08:03 | 48.11904 | 16.55761 | 619 ft | 0 kts | 349° |
| 2026-04-26 08:09 | 48.11899 | 16.55763 | 610 ft | 4 kts | 350° |
| 2026-04-26 08:09 | 48.11873 | 16.55767 | 615 ft | 4 kts | 2° |
| 2026-04-26 08:09 | 48.11846 | 16.55761 | 612 ft | 4 kts | 20° |
| 2026-04-26 08:10 | 48.11824 | 16.55743 | 624 ft | 4 kts | 47° |
| 2026-04-26 08:10 | 48.11812 | 16.55711 | 622 ft | 4 kts | 99° |
| 2026-04-26 08:10 | 48.11814 | 16.55700 | 619 ft | 1 kts | 116° |
| 2026-04-26 08:12 | 48.11803 | 16.55733 | 621 ft | 8 kts | 116° |
| 2026-04-26 08:12 | 48.11738 | 16.55789 | 618 ft | 14 kts | 196° |
| 2026-04-26 08:13 | 48.11665 | 16.55876 | 618 ft | 17 kts | 115° |
| 2026-04-26 08:13 | 48.11607 | 16.56054 | 612 ft | 21 kts | 116° |
| 2026-04-26 08:13 | 48.11533 | 16.56280 | 613 ft | 27 kts | 116° |
| 2026-04-26 08:13 | 48.11453 | 16.56527 | 613 ft | 24 kts | 116° |
| 2026-04-26 08:14 | 48.11382 | 16.56742 | 621 ft | 22 kts | 115° |
| 2026-04-26 08:14 | 48.11319 | 16.56938 | 614 ft | 20 kts | 116° |
| 2026-04-26 08:14 | 48.11260 | 16.57119 | 617 ft | 19 kts | 116° |
| 2026-04-26 08:14 | 48.11186 | 16.57233 | 611 ft | 15 kts | 189° |
| 2026-04-26 08:15 | 48.11100 | 16.57178 | 612 ft | 13 kts | 205° |
| 2026-04-26 08:15 | 48.11056 | 16.57100 | 612 ft | 9 kts | 287° |
| 2026-04-26 08:15 | 48.11114 | 16.56926 | 610 ft | 46 kts | 297° |
| 2026-04-26 08:15 | 48.11363 | 16.56153 | 621 ft | 116 kts | 296° |
| 2026-04-26 08:16 | 48.11777 | 16.54850 | 824 ft | 146 kts | 298° |
| 2026-04-26 08:16 | 48.12037 | 16.53370 | 1510 ft | 159 kts | 271° |
| 2026-04-26 08:16 | 48.11499 | 16.51855 | 2229 ft | 184 kts | 228° |
| 2026-04-26 08:16 | 48.10380 | 16.50749 | 2829 ft | 199 kts | 220° |
| 2026-04-26 08:17 | 48.09242 | 16.49439 | 3323 ft | 214 kts | 226° |
| 2026-04-26 08:17 | 48.08032 | 16.48007 | 3809 ft | 234 kts | 215° |
| 2026-04-26 08:17 | 48.06385 | 16.47420 | 4372 ft | 259 kts | 180° |
| 2026-04-26 08:17 | 48.04541 | 16.47688 | 4974 ft | 275 kts | 176° |
| 2026-04-26 08:18 | 48.02582 | 16.48053 | 5553 ft | 291 kts | 176° |
| 2026-04-26 08:18 | 48.00548 | 16.48477 | 6391 ft | 300 kts | 173° |
| 2026-04-26 08:18 | 47.98589 | 16.49677 | 7254 ft | 311 kts | 147° |
| 2026-04-26 08:18 | 47.96869 | 16.51708 | 8046 ft | 319 kts | 141° |
| 2026-04-26 08:19 | 47.95149 | 16.53845 | 8843 ft | 325 kts | 141° |
| 2026-04-26 08:19 | 47.93401 | 16.56032 | 9671 ft | 330 kts | 140° |
| 2026-04-26 08:19 | 47.91624 | 16.58265 | 10368 ft | 341 kts | 140° |
| 2026-04-26 08:19 | 47.89768 | 16.60597 | 10792 ft | 357 kts | 140° |
| 2026-04-26 08:20 | 47.87789 | 16.63069 | 11181 ft | 375 kts | 140° |
| 2026-04-26 08:20 | 47.85757 | 16.65589 | 11721 ft | 385 kts | 140° |
| 2026-04-26 08:20 | 47.83715 | 16.68112 | 12468 ft | 388 kts | 140° |
| 2026-04-26 08:20 | 47.81631 | 16.70681 | 13251 ft | 390 kts | 140° |
| 2026-04-26 08:21 | 47.79537 | 16.73261 | 14017 ft | 393 kts | 140° |
| 2026-04-26 08:21 | 47.77424 | 16.75866 | 14675 ft | 396 kts | 140° |
| 2026-04-26 08:21 | 47.75298 | 16.78491 | 15340 ft | 398 kts | 140° |
| 2026-04-26 08:21 | 47.73163 | 16.81123 | 16008 ft | 401 kts | 140° |
| 2026-04-26 08:22 | 47.71005 | 16.83777 | 16651 ft | 404 kts | 140° |
| 2026-04-26 08:22 | 47.68833 | 16.86441 | 17290 ft | 407 kts | 140° |
| 2026-04-26 08:22 | 47.66642 | 16.89123 | 17918 ft | 410 kts | 140° |
| 2026-04-26 08:22 | 47.64434 | 16.91825 | 18533 ft | 413 kts | 140° |
| 2026-04-26 08:23 | 47.62211 | 16.94548 | 19072 ft | 416 kts | 140° |
| 2026-04-26 08:23 | 47.59972 | 16.97289 | 19620 ft | 419 kts | 140° |
| 2026-04-26 08:23 | 47.57715 | 17.00048 | 20168 ft | 422 kts | 140° |
| 2026-04-26 08:23 | 47.55443 | 17.02819 | 20722 ft | 425 kts | 140° |
| 2026-04-26 08:24 | 47.53901 | 17.04698 | 21099 ft | 426 kts | 140° |
| 2026-04-26 08:24 | 47.51603 | 17.07498 | 21646 ft | 429 kts | 140° |
| 2026-04-26 08:24 | 47.49288 | 17.10317 | 22187 ft | 432 kts | 140° |
| 2026-04-26 08:24 | 47.46962 | 17.13143 | 22711 ft | 435 kts | 140° |
| 2026-04-26 08:25 | 47.43845 | 17.16925 | 23392 ft | 439 kts | 140° |
| 2026-04-26 08:25 | 47.42248 | 17.18861 | 23720 ft | 441 kts | 140° |
| 2026-04-26 08:25 | 47.39865 | 17.21745 | 24128 ft | 444 kts | 140° |
| 2026-04-26 08:25 | 47.37466 | 17.24640 | 24528 ft | 447 kts | 140° |
| 2026-04-26 08:26 | 47.35058 | 17.27543 | 24934 ft | 449 kts | 140° |
| 2026-04-26 08:26 | 47.32629 | 17.30469 | 25322 ft | 451 kts | 140° |
| 2026-04-26 08:26 | 47.30197 | 17.33402 | 25703 ft | 454 kts | 140° |
| 2026-04-26 08:26 | 47.27750 | 17.36352 | 26074 ft | 456 kts | 140° |
| 2026-04-26 08:27 | 47.25289 | 17.39313 | 26445 ft | 458 kts | 140° |
| 2026-04-26 08:27 | 47.22812 | 17.42288 | 26815 ft | 460 kts | 140° |
| 2026-04-26 08:27 | 47.20327 | 17.45265 | 27182 ft | 462 kts | 140° |
| 2026-04-26 08:27 | 47.17827 | 17.48250 | 27541 ft | 464 kts | 140° |
| 2026-04-26 08:28 | 47.15317 | 17.51246 | 27896 ft | 466 kts | 140° |
| 2026-04-26 08:28 | 47.12796 | 17.54256 | 28241 ft | 468 kts | 140° |
| 2026-04-26 08:28 | 47.10266 | 17.57273 | 28568 ft | 470 kts | 139° |
| 2026-04-26 08:28 | 47.07724 | 17.60302 | 28901 ft | 472 kts | 139° |
| 2026-04-26 08:29 | 47.05169 | 17.63342 | 29214 ft | 474 kts | 139° |
| 2026-04-26 08:29 | 47.02606 | 17.66386 | 29518 ft | 475 kts | 140° |
| 2026-04-26 08:29 | 47.00029 | 17.69441 | 29822 ft | 477 kts | 140° |
| 2026-04-26 08:29 | 46.97446 | 17.72501 | 30113 ft | 479 kts | 140° |
| 2026-04-26 08:30 | 46.94853 | 17.75569 | 30374 ft | 480 kts | 140° |
| 2026-04-26 08:30 | 46.92254 | 17.78642 | 30626 ft | 481 kts | 140° |
| 2026-04-26 08:30 | 46.89650 | 17.81713 | 30881 ft | 481 kts | 140° |
| 2026-04-26 08:30 | 46.87042 | 17.84789 | 31120 ft | 482 kts | 140° |
| 2026-04-26 08:31 | 46.84428 | 17.87867 | 31353 ft | 483 kts | 140° |
| 2026-04-26 08:31 | 46.81818 | 17.90938 | 31615 ft | 482 kts | 140° |
| 2026-04-26 08:31 | 46.79205 | 17.94010 | 31942 ft | 481 kts | 141° |
| 2026-04-26 08:31 | 46.76572 | 17.97096 | 32255 ft | 479 kts | 141° |
| 2026-04-26 08:32 | 46.73973 | 18.00134 | 32557 ft | 478 kts | 141° |
| 2026-04-26 08:32 | 46.71379 | 18.03162 | 32849 ft | 477 kts | 141° |
| 2026-04-26 08:32 | 46.68787 | 18.06189 | 33077 ft | 477 kts | 141° |
| 2026-04-26 08:32 | 46.66218 | 18.09188 | 33133 ft | 466 kts | 141° |
| 2026-04-26 08:33 | 46.61192 | 18.15041 | 33119 ft | 462 kts | 141° |
| 2026-04-26 08:33 | 46.56171 | 18.20881 | 33117 ft | 462 kts | 141° |
| 2026-04-26 08:34 | 46.51144 | 18.26711 | 33108 ft | 462 kts | 141° |
| 2026-04-26 08:34 | 46.46048 | 18.32603 | 33119 ft | 475 kts | 141° |
| 2026-04-26 08:35 | 46.40819 | 18.38632 | 33103 ft | 485 kts | 141° |
| 2026-04-26 08:35 | 46.35512 | 18.44731 | 33101 ft | 487 kts | 141° |
| 2026-04-26 08:36 | 46.30195 | 18.50825 | 33114 ft | 488 kts | 141° |
| 2026-04-26 08:36 | 46.24872 | 18.56913 | 33107 ft | 488 kts | 141° |
| 2026-04-26 08:37 | 46.19525 | 18.63035 | 33079 ft | 493 kts | 141° |
| 2026-04-26 08:37 | 46.14131 | 18.69176 | 33088 ft | 494 kts | 141° |
| 2026-04-26 08:38 | 46.08736 | 18.75294 | 33111 ft | 493 kts | 141° |
| 2026-04-26 08:38 | 46.03379 | 18.81359 | 33112 ft | 492 kts | 141° |
| 2026-04-26 08:39 | 45.98000 | 18.87442 | 33103 ft | 492 kts | 141° |
| 2026-04-26 08:39 | 45.92612 | 18.93498 | 33090 ft | 492 kts | 142° |
| 2026-04-26 08:40 | 45.87076 | 18.99273 | 33092 ft | 492 kts | 145° |
| 2026-04-26 08:40 | 45.81429 | 19.04805 | 33083 ft | 492 kts | 145° |
| 2026-04-26 08:41 | 45.75783 | 19.10344 | 33098 ft | 492 kts | 145° |
| 2026-04-26 08:41 | 45.70187 | 19.15953 | 33103 ft | 491 kts | 144° |
| 2026-04-26 08:42 | 45.64598 | 19.21579 | 33096 ft | 491 kts | 144° |
| 2026-04-26 08:42 | 45.58996 | 19.27175 | 33096 ft | 491 kts | 144° |
| 2026-04-26 08:43 | 45.53387 | 19.32745 | 33082 ft | 491 kts | 145° |
| 2026-04-26 08:43 | 45.47774 | 19.38301 | 33093 ft | 492 kts | 145° |
| 2026-04-26 08:44 | 45.42156 | 19.43851 | 33097 ft | 491 kts | 145° |
| 2026-04-26 08:44 | 45.36537 | 19.49394 | 33105 ft | 491 kts | 145° |
| 2026-04-26 08:45 | 45.30963 | 19.54882 | 33106 ft | 491 kts | 145° |
| 2026-04-26 08:45 | 45.25339 | 19.60404 | 33105 ft | 491 kts | 145° |
| 2026-04-26 08:46 | 45.19715 | 19.65909 | 33096 ft | 491 kts | 145° |
| 2026-04-26 08:46 | 45.14089 | 19.71406 | 33093 ft | 491 kts | 145° |
| 2026-04-26 08:47 | 45.08454 | 19.76891 | 33091 ft | 491 kts | 145° |
| 2026-04-26 08:47 | 45.02820 | 19.82368 | 33086 ft | 491 kts | 145° |
| 2026-04-26 08:48 | 44.97184 | 19.87840 | 33080 ft | 492 kts | 146° |
| 2026-04-26 08:48 | 44.91538 | 19.93309 | 33091 ft | 492 kts | 146° |
| 2026-04-26 08:49 | 44.85926 | 19.98734 | 33088 ft | 492 kts | 146° |
| 2026-04-26 08:49 | 44.80269 | 20.04167 | 33087 ft | 493 kts | 146° |
| 2026-04-26 08:50 | 44.74596 | 20.09606 | 33094 ft | 493 kts | 146° |
| 2026-04-26 08:50 | 44.68928 | 20.15055 | 33094 ft | 494 kts | 146° |
| 2026-04-26 08:51 | 44.60402 | 20.23181 | 33092 ft | 494 kts | 147° |
| 2026-04-26 08:52 | 44.54712 | 20.28598 | 33021 ft | 495 kts | 146° |
| 2026-04-26 08:52 | 44.51879 | 20.31296 | 32637 ft | 490 kts | 146° |
| 2026-04-26 08:52 | 44.49068 | 20.33971 | 32214 ft | 488 kts | 146° |
| 2026-04-26 08:52 | 44.46272 | 20.36630 | 31545 ft | 482 kts | 146° |
| 2026-04-26 08:53 | 44.43510 | 20.39249 | 30904 ft | 476 kts | 145° |
| 2026-04-26 08:53 | 44.40785 | 20.41828 | 30295 ft | 471 kts | 145° |
| 2026-04-26 08:53 | 44.38086 | 20.44381 | 29616 ft | 466 kts | 145° |
| 2026-04-26 08:53 | 44.35410 | 20.46910 | 29023 ft | 462 kts | 145° |
| 2026-04-26 08:54 | 44.32759 | 20.49409 | 28426 ft | 457 kts | 145° |
| 2026-04-26 08:54 | 44.30134 | 20.51881 | 27836 ft | 453 kts | 145° |
| 2026-04-26 08:54 | 44.27528 | 20.54329 | 27259 ft | 449 kts | 145° |
| 2026-04-26 08:54 | 44.24945 | 20.56751 | 26703 ft | 446 kts | 146° |
| 2026-04-26 08:55 | 44.22387 | 20.59149 | 26156 ft | 442 kts | 146° |
| 2026-04-26 08:55 | 44.19828 | 20.61506 | 25659 ft | 439 kts | 147° |
| 2026-04-26 08:55 | 44.17238 | 20.63740 | 25166 ft | 437 kts | 149° |
| 2026-04-26 08:55 | 44.14628 | 20.65879 | 24672 ft | 433 kts | 150° |
| 2026-04-26 08:56 | 44.12062 | 20.67928 | 24205 ft | 430 kts | 150° |
| 2026-04-26 08:56 | 44.10313 | 20.69318 | 23873 ft | 427 kts | 150° |
| 2026-04-26 08:56 | 44.06915 | 20.72032 | 23164 ft | 424 kts | 150° |
| 2026-04-26 08:56 | 44.04375 | 20.74085 | 22673 ft | 421 kts | 150° |
| 2026-04-26 08:57 | 44.01856 | 20.76138 | 22170 ft | 418 kts | 150° |
| 2026-04-26 08:57 | 43.99359 | 20.78183 | 21680 ft | 416 kts | 150° |
| 2026-04-26 08:57 | 43.96875 | 20.80221 | 21182 ft | 414 kts | 150° |
| 2026-04-26 08:57 | 43.94405 | 20.82247 | 20674 ft | 411 kts | 150° |
| 2026-04-26 08:58 | 43.91951 | 20.84254 | 20172 ft | 409 kts | 151° |
| 2026-04-26 08:58 | 43.89509 | 20.86248 | 19670 ft | 406 kts | 151° |
| 2026-04-26 08:58 | 43.87079 | 20.88227 | 19169 ft | 404 kts | 151° |
| 2026-04-26 08:58 | 43.84662 | 20.90192 | 18676 ft | 402 kts | 151° |
| 2026-04-26 08:59 | 43.82254 | 20.92145 | 18154 ft | 400 kts | 151° |
| 2026-04-26 08:59 | 43.79859 | 20.94083 | 17650 ft | 397 kts | 151° |
| 2026-04-26 08:59 | 43.77492 | 20.96013 | 17171 ft | 393 kts | 150° |
| 2026-04-26 08:59 | 43.75222 | 20.98000 | 16701 ft | 390 kts | 148° |
| 2026-04-26 09:00 | 43.72979 | 21.00081 | 16228 ft | 387 kts | 147° |
| 2026-04-26 09:00 | 43.70773 | 21.02185 | 15769 ft | 384 kts | 146° |
| 2026-04-26 09:00 | 43.68583 | 21.04281 | 15315 ft | 382 kts | 146° |
| 2026-04-26 09:00 | 43.66400 | 21.06357 | 14848 ft | 379 kts | 147° |
| 2026-04-26 09:01 | 43.64252 | 21.08439 | 14391 ft | 377 kts | 141° |
| 2026-04-26 09:01 | 43.62391 | 21.10971 | 13936 ft | 375 kts | 128° |
| 2026-04-26 09:01 | 43.60978 | 21.13978 | 13431 ft | 372 kts | 116° |
| 2026-04-26 09:01 | 43.59795 | 21.17132 | 12976 ft | 368 kts | 116° |
| 2026-04-26 09:02 | 43.58619 | 21.20234 | 12510 ft | 364 kts | 117° |
| 2026-04-26 09:02 | 43.57447 | 21.23308 | 12051 ft | 361 kts | 117° |
| 2026-04-26 09:02 | 43.56282 | 21.26353 | 11596 ft | 357 kts | 116° |
| 2026-04-26 09:02 | 43.55128 | 21.29373 | 11143 ft | 355 kts | 116° |
| 2026-04-26 09:03 | 43.53985 | 21.32372 | 10667 ft | 352 kts | 116° |
| 2026-04-26 09:03 | 43.52849 | 21.35338 | 10254 ft | 349 kts | 116° |
| 2026-04-26 09:03 | 43.51735 | 21.38224 | 10118 ft | 331 kts | 116° |
| 2026-04-26 09:03 | 43.50692 | 21.40926 | 9869 ft | 310 kts | 116° |
| 2026-04-26 09:04 | 43.49695 | 21.43524 | 9212 ft | 306 kts | 116° |
| 2026-04-26 09:04 | 43.48708 | 21.46102 | 8561 ft | 304 kts | 115° |
| 2026-04-26 09:04 | 43.47679 | 21.48607 | 7971 ft | 299 kts | 124° |
| 2026-04-26 09:04 | 43.46283 | 21.50702 | 7372 ft | 297 kts | 140° |
| 2026-04-26 09:05 | 43.44628 | 21.52317 | 6690 ft | 295 kts | 142° |
| 2026-04-26 09:05 | 43.43348 | 21.54442 | 6016 ft | 287 kts | 111° |
| 2026-04-26 09:05 | 43.42643 | 21.56968 | 5470 ft | 279 kts | 108° |
| 2026-04-26 09:05 | 43.41932 | 21.59420 | 5010 ft | 272 kts | 110° |
| 2026-04-26 09:06 | 43.41211 | 21.61764 | 4639 ft | 260 kts | 111° |
| 2026-04-26 09:06 | 43.40517 | 21.63968 | 4459 ft | 243 kts | 112° |
| 2026-04-26 09:06 | 43.39847 | 21.66087 | 3967 ft | 241 kts | 111° |
| 2026-04-26 09:06 | 43.39183 | 21.68179 | 3573 ft | 236 kts | 111° |
| 2026-04-26 09:07 | 43.38536 | 21.70220 | 3200 ft | 231 kts | 113° |
| 2026-04-26 09:07 | 43.37902 | 21.72219 | 2845 ft | 224 kts | 112° |
| 2026-04-26 09:07 | 43.37290 | 21.74157 | 2511 ft | 219 kts | 113° |
| 2026-04-26 09:07 | 43.36702 | 21.76006 | 2196 ft | 203 kts | 113° |
| 2026-04-26 09:08 | 43.36161 | 21.77707 | 1878 ft | 184 kts | 113° |
| 2026-04-26 09:08 | 43.35679 | 21.79231 | 1637 ft | 165 kts | 112° |
| 2026-04-26 09:08 | 43.35242 | 21.80625 | 1328 ft | 154 kts | 113° |
| 2026-04-26 09:08 | 43.34812 | 21.81955 | 1091 ft | 151 kts | 112° |
| 2026-04-26 09:09 | 43.34397 | 21.83278 | 869 ft | 150 kts | 113° |
| 2026-04-26 09:09 | 43.33985 | 21.84565 | 673 ft | 144 kts | 114° |
| 2026-04-26 09:09 | 43.33637 | 21.85660 | 657 ft | 94 kts | 113° |
| 2026-04-26 09:09 | 43.33486 | 21.86130 | 659 ft | 32 kts | 112° |
| 2026-04-26 09:10 | 43.33420 | 21.86342 | 657 ft | 20 kts | 113° |
| 2026-04-26 09:10 | 43.33371 | 21.86498 | 657 ft | 14 kts | 114° |
| 2026-04-26 09:10 | 43.33374 | 21.86623 | 651 ft | 13 kts | 45° |
| 2026-04-26 09:10 | 43.33436 | 21.86668 | 651 ft | 6 kts | 25° |
| 2026-04-26 09:11 | 43.33474 | 21.86693 | 652 ft | 10 kts | 22° |
| 2026-04-26 09:11 | 43.33554 | 21.86694 | 655 ft | 12 kts | 340° |
| 2026-04-26 09:11 | 43.33629 | 21.86634 | 653 ft | 10 kts | 305° |
| 2026-04-26 09:11 | 43.33657 | 21.86551 | 653 ft | 9 kts | 294° |
| 2026-04-26 09:12 | 43.33680 | 21.86482 | 656 ft | 7 kts | 294° |
| 2026-04-26 09:12 | 43.33694 | 21.86466 | 653 ft | 2 kts | 356° |
| 2026-04-26 09:12 | 43.33708 | 21.86477 | 653 ft | 4 kts | 30° |
| 2026-04-26 09:12 | 43.33721 | 21.86489 | 653 ft | 0 kts | 54° |
| 2026-04-26 09:13 | 43.33724 | 21.86497 | 654 ft | 2 kts | 61° |
| 2026-04-26 09:13 | 43.33726 | 21.86502 | 653 ft | 0 kts | 61° |